METAR AND TAF INFORMATION
METAR FOR KMIA
ADDS - METARS form results

(1216 UTC 17 June 2019)
Data provider http://aviationweather.gov/metar/data/
 
METAR text: KMIA 171202Z 12006KT 10SM VCTS SCT022CB BKN027 BKN045 BKN170 27/22 A3002 RMK AO2 TSE1156 CB E-SE MOV N T02670217
Conditions at: KMIA (MIAMI , FL, US) observed 1202 UTC 17 June 2019
Temperature: 26.7°C (80°F)
Dewpoint: 21.7°C (71°F) [RH = 74%]
Pressure (altimeter): 30.02 inches Hg (1016.7 mb)
Winds: from the ESE (120 degrees) at 7 MPH (6 knots; 3.1 m/s)
Visibility: 10 or more miles (16+ km)
Ceiling: 2700 feet AGL
Clouds: scattered clouds at 2200 feet AGL
broken clouds at 2700 feet AGL
broken clouds at 4500 feet AGL
broken clouds at 17000 feet AGL
Weather: VCTS  (thunderstorm in vicinity)

METAR text: KMIA 171153Z 13008KT 10SM BKN018 BKN046 BKN100 OVC170 27/21 A3002 RMK AO2 RAB1058E10 SLP164 P0000 60009 70252 T02670211 10278 20250 51010
Conditions at: KMIA (MIAMI , FL, US) observed 1153 UTC 17 June 2019
Temperature: 26.7°C (80°F)
Dewpoint: 21.1°C (70°F) [RH = 71%]
Pressure (altimeter): 30.02 inches Hg (1016.7 mb)
[Sea-level pressure: 1016.4 mb]
Winds: from the SE (130 degrees) at 9 MPH (8 knots; 4.1 m/s)
Visibility: 10 or more miles (16+ km)
Ceiling: 1800 feet AGL
Clouds: broken clouds at 1800 feet AGL
broken clouds at 4600 feet AGL
broken clouds at 10000 feet AGL
overcast cloud deck at 17000 feet AGL
Weather: no significant weather observed at this time

METAR text: KMIA 171138Z 14014KT 10SM BKN018 BKN046 BKN100 OVC170 27/23 A3001 RMK AO2 RAB1058E10 P0000 T02720228
Conditions at: KMIA (MIAMI , FL, US) observed 1138 UTC 17 June 2019
Temperature: 27.2°C (81°F)
Dewpoint: 22.8°C (73°F) [RH = 77%]
Pressure (altimeter): 30.01 inches Hg (1016.3 mb)
Winds: from the SE (140 degrees) at 16 MPH (14 knots; 7.2 m/s)
Visibility: 10 or more miles (16+ km)
Ceiling: 1800 feet AGL
Clouds: broken clouds at 1800 feet AGL
broken clouds at 4600 feet AGL
broken clouds at 10000 feet AGL
overcast cloud deck at 17000 feet AGL
Weather: no significant weather observed at this time

Forecast for: KMIA (MIAMI , FL, US)
Text: KMIA 171126Z 1712/1818 11006KT 6SM SHRA VCTS SCT025CB BKN140 OVC200
Forecast period: 1200 to 1400 UTC 17 June 2019
Forecast type: FROM: standard forecast or significant change
Winds: from the ESE (110 degrees) at 7 MPH (6 knots; 3.1 m/s)
Visibility: 6 miles (10 km)
Ceiling: 14000 feet AGL
Clouds: scattered clouds at 2500 feet AGL
broken clouds at 14000 feet AGL
overcast cloud deck at 20000 feet AGL
Weather: SHRA VCTS  (rain showers, thunderstorm in vicinity)
Text: FM171400 15011KT P6SM SHRA VCTS SCT025CB BKN050
Forecast period: 1400 UTC 17 June 2019 to 0000 UTC 18 June 2019
Forecast type: FROM: standard forecast or significant change
Winds: from the SSE (150 degrees) at 13 MPH (11 knots; 5.7 m/s)
Visibility: 6 or more miles 10+ km)
Ceiling: 5000 feet AGL
Clouds: scattered clouds at 2500 feet AGL
broken clouds at 5000 feet AGL
Weather: SHRA VCTS  (rain showers, thunderstorm in vicinity)
Text: FM180000 13008KT P6SM VCSH SCT025 BKN070
Forecast period: 0000 to 1400 UTC 18 June 2019
Forecast type: FROM: standard forecast or significant change
Winds: from the SE (130 degrees) at 9 MPH (8 knots; 4.1 m/s)
Visibility: 6 or more miles 10+ km)
Ceiling: 7000 feet AGL
Clouds: scattered clouds at 2500 feet AGL
broken clouds at 7000 feet AGL
Weather: VCSH  (showers in vicinity)
Text: FM181400 15008KT P6SM VCSH SCT030 BKN050
Forecast period: 1400 to 1800 UTC 18 June 2019
Forecast type: FROM: standard forecast or significant change
Winds: from the SSE (150 degrees) at 9 MPH (8 knots; 4.1 m/s)
Visibility: 6 or more miles 10+ km)
Ceiling: 5000 feet AGL
Clouds: scattered clouds at 3000 feet AGL
broken clouds at 5000 feet AGL
Weather: VCSH  (showers in vicinity)

 AIRPORT MAP

 RUNWAY INFORMATION

 AIRPORT FREQUENCIES
Type APP Name APP Frequency 120.5 MHZ
Type ATIS Name ATIS Frequency 119.15 MHZ
Type CLD Name CLNC DEL Frequency 120.35 MHZ
Type DEP Name DEP Frequency 119.45 MHZ
Type GND Name GND Frequency 121.8 MHZ
Type TWR Name TWR Frequency 118.3 MHZ
Type UNIC Name UNICOM Frequency 123 MHZ

 AIRPORT NEAR NAVIGATION AIDS
Type VORTAC Name Dolphin Frequency 113900 KHZ
Type NDB Name Keyes Frequency 248 KHZ



2018 Air Astana Virtual Airline